createdAt,value
2019-01-18T00:02:24.519Z,2.15
2019-01-18T00:04:56.556Z,2.15
2019-01-18T00:07:28.558Z,2.07
2019-01-18T00:10:00.593Z,2.08
2019-01-18T00:12:32.597Z,2.08
2019-01-18T00:15:06.003Z,1.97
2019-01-18T00:17:37.979Z,2.03
2019-01-18T00:20:10.188Z,1.95
2019-01-18T00:22:42.185Z,1.96
2019-01-18T00:25:14.174Z,1.91
2019-01-18T00:27:46.156Z,1.82
2019-01-18T00:30:18.193Z,1.80
2019-01-18T00:32:50.269Z,1.80
2019-01-18T00:35:22.274Z,1.95
2019-01-18T00:37:54.215Z,1.97
2019-01-18T00:40:26.221Z,2.00
2019-01-18T00:42:58.183Z,2.05
2019-01-18T00:45:30.178Z,2.01
2019-01-18T00:48:02.139Z,2.03
2019-01-18T00:50:36.184Z,2.06
2019-01-18T00:53:08.142Z,2.11
2019-01-18T00:55:40.209Z,2.17
2019-01-18T00:58:12.186Z,2.16
2019-01-18T01:00:44.161Z,2.14
2019-01-18T01:03:16.140Z,2.07
2019-01-18T01:05:48.126Z,2.07
2019-01-18T01:08:20.106Z,2.08
2019-01-18T01:10:52.064Z,2.10
2019-01-18T01:16:02.791Z,2.15
2019-01-18T01:18:34.788Z,2.20
2019-01-18T01:21:06.752Z,2.16
2019-01-18T01:23:38.730Z,2.20
2019-01-18T01:26:10.685Z,2.20
2019-01-18T01:28:42.653Z,2.23
2019-01-18T01:31:14.617Z,2.28
2019-01-18T01:33:46.607Z,2.35
2019-01-18T01:36:18.566Z,2.36
2019-01-18T01:38:50.542Z,2.39
2019-01-18T01:41:22.524Z,2.39
2019-01-18T01:43:54.515Z,2.36
2019-01-18T01:46:46.027Z,2.39
2019-01-18T01:49:18.009Z,2.41
2019-01-18T01:51:49.966Z,2.41
2019-01-18T01:54:21.971Z,2.39
2019-01-18T01:56:53.953Z,2.42
2019-01-18T01:59:25.942Z,2.48
2019-01-18T02:01:57.948Z,2.47
2019-01-18T02:04:29.943Z,2.50
2019-01-18T02:07:01.892Z,2.51
2019-01-18T02:09:33.888Z,2.45
2019-01-18T02:12:05.847Z,2.41
2019-01-18T02:14:37.920Z,2.44
2019-01-18T02:17:09.873Z,2.43
2019-01-18T02:19:41.946Z,2.50
2019-01-18T02:22:13.920Z,2.53
2019-01-18T02:24:45.904Z,2.46
2019-01-18T02:27:17.867Z,2.60
2019-01-18T02:29:56.369Z,2.54
2019-01-18T02:32:23.767Z,2.45
2019-01-18T02:34:55.743Z,2.47
2019-01-18T02:37:27.680Z,2.50
2019-01-18T02:39:59.666Z,2.46
2019-01-18T02:42:31.705Z,2.58
2019-01-18T02:45:45.243Z,2.48
2019-01-18T02:48:17.170Z,2.45
2019-01-18T02:53:29.163Z,2.41
2019-01-18T02:56:01.158Z,2.37
2019-01-18T02:58:33.116Z,2.39
2019-01-18T03:01:05.100Z,2.40
2019-01-18T03:03:37.074Z,2.45
2019-01-18T03:06:09.053Z,2.47
2019-01-18T03:08:41.009Z,2.43
2019-01-18T03:11:13.015Z,2.38
2019-01-18T03:13:45.000Z,2.36
2019-01-18T03:16:16.966Z,2.38
2019-01-18T03:18:48.939Z,2.37
2019-01-18T03:21:20.885Z,2.36
2019-01-18T03:23:52.859Z,2.41
2019-01-18T03:26:24.807Z,2.38
2019-01-18T03:28:56.790Z,2.35
2019-01-18T03:31:28.744Z,2.36
2019-01-18T03:34:00.716Z,2.39
2019-01-18T03:36:32.659Z,2.44
2019-01-18T03:39:08.816Z,2.43
2019-01-18T03:41:40.773Z,2.41
2019-01-18T03:44:12.746Z,2.41
2019-01-18T03:46:44.816Z,2.41
2019-01-18T03:49:16.792Z,2.44
2019-01-18T03:51:48.745Z,2.39
2019-01-18T03:54:20.746Z,2.42
2019-01-18T03:56:52.697Z,2.40
2019-01-18T03:59:24.694Z,2.37
2019-01-18T04:01:56.648Z,2.38
2019-01-18T04:04:28.635Z,2.40
2019-01-18T04:07:00.593Z,2.36
2019-01-18T04:09:32.596Z,2.38
2019-01-18T04:12:04.562Z,2.46
2019-01-18T04:14:36.548Z,2.46
2019-01-18T04:17:08.503Z,2.44
2019-01-18T04:19:40.492Z,2.50
2019-01-18T04:22:12.454Z,2.53
2019-01-18T04:24:44.435Z,2.57
2019-01-18T04:27:16.385Z,2.42
2019-01-18T04:29:48.364Z,2.40
2019-01-18T04:32:20.323Z,2.37
2019-01-18T04:34:52.306Z,2.34
2019-01-18T04:37:24.269Z,2.38
2019-01-18T04:39:56.278Z,2.45
2019-01-18T04:42:28.242Z,2.41
2019-01-18T04:45:00.263Z,2.41
2019-01-18T04:47:32.180Z,2.44
2019-01-18T04:50:05.533Z,2.49
2019-01-18T04:52:37.490Z,2.50
2019-01-18T04:55:09.486Z,2.61
2019-01-18T04:57:41.441Z,2.65
2019-01-18T05:00:16.454Z,2.52
2019-01-18T05:02:48.448Z,2.51
2019-01-18T05:05:20.389Z,2.54
2019-01-18T05:07:52.386Z,2.52
2019-01-18T05:10:26.001Z,2.50
2019-01-18T05:12:58.374Z,2.46
2019-01-18T05:15:31.568Z,2.50
2019-01-18T05:18:03.559Z,2.53
2019-01-18T05:20:35.620Z,2.50
2019-01-18T05:23:07.620Z,2.48
2019-01-18T05:25:39.589Z,2.42
2019-01-18T05:28:11.581Z,2.39
2019-01-18T05:30:47.512Z,2.36
2019-01-18T05:33:17.433Z,2.35
2019-01-18T05:35:49.387Z,2.38
2019-01-18T05:38:21.390Z,2.46
2019-01-18T05:40:53.395Z,2.34
2019-01-18T05:43:25.392Z,2.39
2019-01-18T05:45:57.358Z,2.37
2019-01-18T05:48:29.369Z,2.38
2019-01-18T05:51:01.319Z,2.38
2019-01-18T05:53:33.304Z,2.36
2019-01-18T05:56:05.320Z,2.35
2019-01-18T05:58:37.282Z,2.37
2019-01-18T06:01:11.059Z,2.38
2019-01-18T06:03:43.053Z,2.37
2019-01-18T06:06:15.005Z,2.37
2019-01-18T06:08:47.035Z,2.40
2019-01-18T06:11:19.074Z,2.40
2019-01-18T06:13:51.087Z,2.41
2019-01-18T06:16:23.200Z,2.42
2019-01-18T06:18:55.190Z,2.50
2019-01-18T06:21:27.164Z,2.60
2019-01-18T06:23:59.191Z,2.54
2019-01-18T06:26:31.144Z,2.57
2019-01-18T06:29:03.118Z,2.56
2019-01-18T06:31:35.103Z,2.57
2019-01-18T06:34:07.067Z,2.50
2019-01-18T06:36:39.041Z,2.48
2019-01-18T06:39:11.027Z,2.54
2019-01-18T06:42:02.568Z,2.60
2019-01-18T06:44:34.550Z,2.54
2019-01-18T06:47:06.506Z,2.58
2019-01-18T06:49:38.475Z,2.48
2019-01-18T06:52:10.434Z,2.45
2019-01-18T06:54:42.448Z,2.48
2019-01-18T06:57:14.399Z,2.46
2019-01-18T06:59:46.380Z,2.45
2019-01-18T07:02:18.355Z,2.42
2019-01-18T07:04:50.374Z,2.43
2019-01-18T07:07:22.356Z,2.41
2019-01-18T07:09:54.334Z,2.41
2019-01-18T07:12:26.286Z,2.43
2019-01-18T07:14:58.284Z,2.41
2019-01-18T07:17:30.265Z,2.43
2019-01-18T07:20:02.361Z,2.43
2019-01-18T07:22:34.338Z,2.39
2019-01-18T07:25:09.656Z,2.40
2019-01-18T07:27:41.620Z,2.45
2019-01-18T07:30:34.330Z,2.39
2019-01-18T07:33:25.762Z,2.43
2019-01-18T07:36:00.516Z,2.46
2019-01-18T07:38:32.512Z,2.50
2019-01-18T07:41:04.490Z,2.50
2019-01-18T07:43:36.502Z,2.46
2019-01-18T07:46:08.459Z,2.47
2019-01-18T07:48:40.487Z,2.50
2019-01-18T07:51:12.500Z,2.50
2019-01-18T07:53:44.475Z,2.50
2019-01-18T07:56:16.491Z,2.52
2019-01-18T07:58:48.453Z,2.58
2019-01-18T08:01:22.151Z,2.59
2019-01-18T08:03:54.352Z,2.57
2019-01-18T08:06:26.361Z,2.56
2019-01-18T08:08:58.344Z,2.56
2019-01-18T08:11:30.463Z,2.57
2019-01-18T08:14:02.521Z,2.58
2019-01-18T08:16:34.540Z,2.52
2019-01-18T08:19:06.568Z,2.44
2019-01-18T08:21:38.559Z,2.50
2019-01-18T08:24:10.611Z,2.49
2019-01-18T08:26:50.032Z,2.56
2019-01-18T08:29:22.033Z,2.62
2019-01-18T08:31:54.046Z,2.63
2019-01-18T08:34:26.077Z,2.73
2019-01-18T08:36:58.076Z,2.87
2019-01-18T08:39:30.073Z,2.96
2019-01-18T08:42:02.066Z,2.93
2019-01-18T08:44:34.078Z,2.93
2019-01-18T08:47:06.080Z,2.94
2019-01-18T08:49:38.100Z,2.78
2019-01-18T08:52:10.091Z,2.60
2019-01-18T08:54:42.151Z,2.52
2019-01-18T08:57:14.165Z,2.67
2019-01-18T08:59:47.483Z,2.79
2019-01-18T09:02:20.071Z,2.67
2019-01-18T09:04:52.090Z,2.71
2019-01-18T09:07:24.118Z,2.71
2019-01-18T09:09:56.134Z,2.78
2019-01-18T09:12:28.114Z,2.97
2019-01-18T09:15:00.231Z,3.06
2019-01-18T09:17:32.182Z,3.16
2019-01-18T09:20:06.533Z,3.35
2019-01-18T09:22:38.488Z,3.33
2019-01-18T09:25:10.508Z,3.42
2019-01-18T09:27:42.459Z,3.53
2019-01-18T09:30:16.724Z,3.50
2019-01-18T09:32:49.286Z,3.54
2019-01-18T09:35:22.413Z,3.65
2019-01-18T09:37:55.887Z,3.69
2019-01-18T09:40:31.645Z,3.59
2019-01-18T09:43:03.999Z,3.63
2019-01-18T09:45:35.990Z,3.59
2019-01-18T09:48:09.251Z,3.69
2019-01-18T09:50:41.209Z,3.71
2019-01-18T09:53:13.181Z,3.68
2019-01-18T09:55:45.206Z,3.70
2019-01-18T09:58:17.179Z,3.75
2019-01-18T10:00:49.197Z,3.88
2019-01-18T10:03:21.161Z,3.96
2019-01-18T10:05:53.183Z,3.91
2019-01-18T10:08:25.170Z,3.94
2019-01-18T10:10:57.179Z,3.91
2019-01-18T10:13:29.130Z,3.84
2019-01-18T10:16:01.136Z,3.82
2019-01-18T10:18:33.112Z,3.92
2019-01-18T10:21:05.115Z,4.01
2019-01-18T10:23:37.105Z,4.09
2019-01-18T10:26:09.086Z,4.13
2019-01-18T10:28:41.091Z,4.00
2019-01-18T10:31:13.042Z,4.00
2019-01-18T10:33:45.063Z,3.96
2019-01-18T10:36:17.055Z,3.95
2019-01-18T10:38:49.056Z,4.03
2019-01-18T10:41:21.084Z,4.15
2019-01-18T10:43:53.079Z,4.30
2019-01-18T10:46:25.053Z,4.32
2019-01-18T10:48:57.043Z,4.33
2019-01-18T10:51:29.067Z,4.20
2019-01-18T10:54:01.069Z,4.31
2019-01-18T10:56:33.084Z,4.34
2019-01-18T10:59:05.084Z,4.20
2019-01-18T11:01:37.068Z,4.26
2019-01-18T11:04:09.075Z,4.34
2019-01-18T11:06:41.090Z,4.25
2019-01-18T11:09:13.089Z,4.18
2019-01-18T11:11:45.072Z,4.17
2019-01-18T11:14:17.067Z,4.27
2019-01-18T11:16:49.034Z,4.27
2019-01-18T11:19:21.074Z,4.21
2019-01-18T11:21:53.378Z,4.13
2019-01-18T11:24:25.737Z,4.18
2019-01-18T11:26:57.719Z,4.14
2019-01-18T11:29:29.693Z,4.27
2019-01-18T11:32:01.662Z,4.36
2019-01-18T11:34:33.790Z,4.51
2019-01-18T11:37:05.802Z,4.51
2019-01-18T11:39:37.801Z,4.50
2019-01-18T11:42:09.803Z,4.46
2019-01-18T11:44:41.780Z,4.46
2019-01-18T11:47:13.764Z,4.33
2019-01-18T11:49:45.781Z,4.35
2019-01-18T11:52:17.760Z,4.43
2019-01-18T11:54:49.804Z,4.52
2019-01-18T11:57:21.816Z,4.62
2019-01-18T11:59:53.810Z,4.81
2019-01-18T12:02:25.823Z,4.75
2019-01-18T12:04:57.847Z,4.84
2019-01-18T12:07:29.873Z,4.80
2019-01-18T12:10:01.895Z,4.85
2019-01-18T12:12:33.849Z,4.91
2019-01-18T12:15:07.144Z,4.65
2019-01-18T12:17:39.244Z,4.71
2019-01-18T12:20:14.274Z,4.83
2019-01-18T12:22:46.257Z,4.88
2019-01-18T12:25:18.317Z,5.11
2019-01-18T12:27:50.345Z,5.14
2019-01-18T12:30:25.285Z,5.07
2019-01-18T12:32:57.307Z,5.12
2019-01-18T12:35:29.322Z,4.93
2019-01-18T12:38:01.310Z,5.18
2019-01-18T12:40:33.418Z,5.03
2019-01-18T12:43:05.429Z,5.05
2019-01-18T12:45:37.395Z,5.06
2019-01-18T12:48:09.383Z,5.19
2019-01-18T12:50:41.409Z,5.08
2019-01-18T12:53:13.427Z,5.03
2019-01-18T12:55:45.439Z,5.15
2019-01-18T12:58:17.465Z,5.18
2019-01-18T13:00:49.463Z,5.16
2019-01-18T13:03:21.463Z,5.35
2019-01-18T13:05:54.078Z,5.24
2019-01-18T13:08:26.384Z,5.31
2019-01-18T13:10:58.368Z,5.25
2019-01-18T13:13:30.364Z,5.11
2019-01-18T13:16:32.064Z,5.04
2019-01-18T13:19:10.089Z,4.99
2019-01-18T13:21:42.094Z,4.94
2019-01-18T13:24:14.205Z,4.96
2019-01-18T13:26:46.203Z,4.83
2019-01-18T13:29:18.166Z,4.89
2019-01-18T13:31:50.186Z,5.11
2019-01-18T13:34:22.182Z,4.90
2019-01-18T13:36:54.179Z,4.78
2019-01-18T13:39:26.179Z,4.73
2019-01-18T13:41:58.152Z,4.82
2019-01-18T13:44:30.176Z,4.84
2019-01-18T13:47:02.186Z,4.94
2019-01-18T13:49:34.212Z,4.87
2019-01-18T13:52:06.247Z,5.02
2019-01-18T13:54:38.266Z,4.96
2019-01-18T13:57:12.306Z,5.01
2019-01-18T13:59:44.158Z,5.02
2019-01-18T14:02:16.139Z,5.08
2019-01-18T14:04:48.163Z,5.00
2019-01-18T14:07:20.260Z,5.05
2019-01-18T14:09:52.289Z,5.05
2019-01-18T14:12:24.283Z,5.02
2019-01-18T14:14:56.326Z,5.08
2019-01-18T14:17:28.455Z,5.04
2019-01-18T14:20:00.554Z,4.95
2019-01-18T14:22:32.589Z,4.83
2019-01-18T14:25:04.922Z,4.67
2019-01-18T14:27:36.960Z,4.75
2019-01-18T14:30:12.751Z,4.73
2019-01-18T14:32:44.780Z,4.69
2019-01-18T14:35:16.760Z,4.60
2019-01-18T14:37:48.895Z,4.58
2019-01-18T14:40:21.003Z,4.55
2019-01-18T14:42:53.042Z,4.48
2019-01-18T14:45:36.472Z,4.50
2019-01-18T14:48:08.515Z,4.44
2019-01-18T14:50:40.516Z,4.44
2019-01-18T14:53:12.557Z,4.49
2019-01-18T14:55:44.653Z,4.48
2019-01-18T14:58:16.683Z,4.51
2019-01-18T15:00:48.705Z,4.43
2019-01-18T15:03:20.845Z,4.50
2019-01-18T15:05:52.844Z,4.46
2019-01-18T15:08:24.872Z,4.34
2019-01-18T15:10:56.964Z,4.30
2019-01-18T15:13:29.090Z,4.36
2019-01-18T15:16:01.159Z,4.36
2019-01-18T15:18:34.501Z,4.30
2019-01-18T15:21:06.538Z,4.31
2019-01-18T15:23:38.581Z,4.29
2019-01-18T15:26:10.611Z,4.12
2019-01-18T15:28:42.649Z,4.10
2019-01-18T15:31:14.705Z,4.01
2019-01-18T15:33:46.772Z,3.93
2019-01-18T15:36:18.773Z,3.91
2019-01-18T15:38:50.809Z,3.66
2019-01-18T15:41:22.820Z,3.66
2019-01-18T15:43:54.867Z,3.56
2019-01-18T15:46:26.984Z,3.48
2019-01-18T15:48:59.052Z,3.43
2019-01-18T15:51:31.060Z,3.43
2019-01-18T15:54:03.422Z,3.33
2019-01-18T15:56:35.430Z,3.28
2019-01-18T15:59:07.480Z,3.20
2019-01-18T16:01:39.502Z,3.19
2019-01-18T16:04:11.503Z,3.17
2019-01-18T16:06:43.512Z,3.11
2019-01-18T16:09:15.559Z,3.04
2019-01-18T16:11:47.581Z,3.03
2019-01-18T16:14:19.631Z,2.97
2019-01-18T16:16:59.047Z,2.92
2019-01-18T16:19:31.071Z,2.93
2019-01-18T16:22:03.200Z,2.91
2019-01-18T16:24:35.228Z,2.87
2019-01-18T16:27:07.277Z,2.76
2019-01-18T16:29:39.410Z,2.69
2019-01-18T16:32:11.416Z,2.64
2019-01-18T16:34:43.507Z,2.51
2019-01-18T16:37:15.563Z,2.48
2019-01-18T16:39:47.602Z,2.44
2019-01-18T16:42:20.757Z,2.36
2019-01-18T16:44:53.434Z,2.33
2019-01-18T16:47:25.480Z,2.29
2019-01-18T16:49:57.558Z,2.20
2019-01-18T16:52:29.588Z,2.15
2019-01-18T16:55:01.681Z,2.07
2019-01-18T16:57:33.710Z,1.99
2019-01-18T17:00:14.337Z,2.02
2019-01-18T17:02:46.371Z,1.90
2019-01-18T17:05:18.430Z,1.77
2019-01-18T17:07:50.498Z,1.70
2019-01-18T17:10:22.544Z,1.65
2019-01-18T17:12:54.572Z,1.66
2019-01-18T17:15:26.607Z,1.65
2019-01-18T17:17:58.668Z,1.72
2019-01-18T17:20:32.524Z,1.69
2019-01-18T17:23:04.566Z,1.66
2019-01-18T17:25:36.605Z,1.65
2019-01-18T17:28:08.794Z,1.60
2019-01-18T17:30:40.824Z,1.38
2019-01-18T17:33:12.876Z,1.31
2019-01-18T17:35:59.049Z,1.25
2019-01-18T17:39:06.130Z,1.24
2019-01-18T17:42:35.065Z,1.11
2019-01-18T17:45:37.381Z,1.09
2019-01-18T17:48:35.046Z,0.98
2019-01-18T17:51:32.103Z,0.96
2019-01-18T17:54:50.992Z,0.89
2019-01-18T17:58:15.749Z,0.83
2019-01-18T18:01:50.771Z,0.79
2019-01-18T18:05:13.389Z,0.82
2019-01-18T18:08:11.214Z,0.64
2019-01-18T18:11:39.950Z,0.61
2019-01-18T18:14:54.000Z,0.58
2019-01-18T18:18:10.940Z,0.60
2019-01-18T18:21:09.087Z,0.64
2019-01-18T18:24:13.171Z,0.58
2019-01-18T18:27:45.023Z,0.62
2019-01-18T18:30:24.517Z,0.63
2019-01-18T18:33:43.292Z,0.50
2019-01-18T18:36:51.464Z,0.55
2019-01-18T18:39:52.454Z,0.57
2019-01-18T18:43:08.571Z,0.54
2019-01-18T18:46:30.767Z,0.64
2019-01-18T18:49:31.610Z,0.65
2019-01-18T18:52:38.784Z,0.59
2019-01-18T18:55:55.613Z,0.47
2019-01-18T18:59:21.044Z,0.51
2019-01-18T19:02:19.362Z,0.48
2019-01-18T19:05:28.956Z,0.46
2019-01-18T19:08:46.210Z,0.44
2019-01-18T19:11:46.501Z,0.47
2019-01-18T19:14:47.603Z,0.52
2019-01-18T19:18:00.538Z,0.45
2019-01-18T19:20:58.252Z,0.38
2019-01-18T19:23:56.547Z,0.36
2019-01-18T19:27:15.609Z,0.32
2019-01-18T19:30:09.431Z,0.27
2019-01-18T19:33:15.096Z,0.22
2019-01-18T19:36:34.005Z,0.22
2019-01-18T19:39:33.001Z,0.09
2019-01-18T19:42:37.128Z,0.09
2019-01-18T19:45:39.518Z,0.03
2019-01-18T19:48:34.577Z,0.01
2019-01-18T19:51:51.439Z,-0.07
2019-01-18T19:54:37.077Z,-0.11
2019-01-18T19:57:27.630Z,-0.07
2019-01-18T20:00:32.027Z,-0.09
2019-01-18T20:03:43.060Z,-0.14
2019-01-18T20:06:42.329Z,-0.13
2019-01-18T20:09:28.611Z,-0.13
2019-01-18T20:12:51.195Z,-0.12
2019-01-18T20:15:42.667Z,-0.19
2019-01-18T20:19:07.989Z,-0.32
2019-01-18T20:21:50.865Z,-0.26
2019-01-18T20:24:55.348Z,-0.37
2019-01-18T20:27:53.778Z,-0.44
2019-01-18T20:31:03.718Z,-0.48
2019-01-18T20:34:30.294Z,-0.35
2019-01-18T20:37:43.981Z,-0.37
2019-01-18T20:40:44.077Z,-0.42
2019-01-18T20:44:00.848Z,-0.44
2019-01-18T20:47:29.105Z,-0.47
2019-01-18T20:50:40.385Z,-0.38
2019-01-18T20:53:56.360Z,-0.51
2019-01-18T20:57:07.114Z,-0.55
2019-01-18T21:00:32.798Z,-0.56
2019-01-18T21:03:30.003Z,-0.63
2019-01-18T21:06:40.491Z,-0.67
2019-01-18T21:09:45.208Z,-0.56
2019-01-18T21:13:01.536Z,-0.58
2019-01-18T21:16:24.147Z,-0.58
2019-01-18T21:19:21.300Z,-0.63
2019-01-18T21:22:44.100Z,-0.70
2019-01-18T21:25:41.456Z,-0.72
2019-01-18T21:28:54.016Z,-0.69
2019-01-18T21:32:26.053Z,-0.71
2019-01-18T21:35:38.252Z,-0.75
2019-01-18T21:38:44.090Z,-0.70
2019-01-18T21:42:06.918Z,-0.67
2019-01-18T21:45:08.237Z,-0.68
2019-01-18T21:48:08.996Z,-0.76
2019-01-18T21:51:15.647Z,-0.78
2019-01-18T21:54:24.601Z,-0.77
2019-01-18T21:57:35.771Z,-0.73
2019-01-18T22:00:49.471Z,-0.73
2019-01-18T22:03:39.091Z,-0.69
2019-01-18T22:06:40.737Z,-0.72
2019-01-18T22:10:21.859Z,-0.76
2019-01-18T22:13:09.594Z,-0.94
2019-01-18T22:16:26.263Z,-0.86
2019-01-18T22:19:38.887Z,-0.88
2019-01-18T22:22:52.168Z,-0.84
2019-01-18T22:26:01.764Z,-0.89
2019-01-18T22:29:19.657Z,-0.96
2019-01-18T22:32:11.536Z,-1.01
2019-01-18T22:34:53.360Z,-0.99
2019-01-18T22:37:56.506Z,-0.99
2019-01-18T22:41:23.271Z,-0.95
2019-01-18T22:44:54.987Z,-0.94
2019-01-18T22:47:59.441Z,-0.95
2019-01-18T22:51:16.637Z,-1.07
2019-01-18T22:54:22.252Z,-1.11
2019-01-18T22:57:29.231Z,-1.09
2019-01-18T23:01:17.700Z,-1.17
2019-01-18T23:04:30.525Z,-1.17
2019-01-18T23:07:53.196Z,-1.22
2019-01-18T23:11:10.022Z,-1.21
2019-01-18T23:14:27.334Z,-1.20
2019-01-18T23:17:25.322Z,-1.28
2019-01-18T23:20:30.941Z,-1.38
2019-01-18T23:23:45.718Z,-1.34
2019-01-18T23:27:01.951Z,-1.33
2019-01-18T23:29:58.077Z,-1.39
2019-01-18T23:32:55.621Z,-1.33
2019-01-18T23:35:46.675Z,-1.32
2019-01-18T23:38:54.773Z,-1.42
2019-01-18T23:41:44.749Z,-1.51
2019-01-18T23:44:48.321Z,-1.56
2019-01-18T23:47:42.067Z,-1.58
2019-01-18T23:50:43.166Z,-1.69
2019-01-18T23:53:49.674Z,-1.66
2019-01-18T23:56:59.798Z,-1.68
